Time;durP1;ratioP1;P1;durP2;ratioP2;P2;SDS_P1;SDS_P2;PMS_P1;PMS_P2;Temp;Humidity;BMP_temperature;BMP_pressure;BME280_temperature;BME280_humidity;BME280_pressure;Samples;Min_cycle;Max_cycle;Signal;HPM_P1;HPM_P2
2023/06/03 00:00:54;;;;;;;1.30;1.20;;;;;;;;;;5070965;28;20294;-53
2023/06/03 00:03:21;;;;;;;1.37;1.13;;;;;;;;;;5071070;28;20219;-53
2023/06/03 00:05:47;;;;;;;1.13;1.00;;;;;;;;;;5070712;28;20238;-53
2023/06/03 00:08:13;;;;;;;2.53;1.20;;;;;;;;;;5070795;28;20206;-53
2023/06/03 00:10:39;;;;;;;1.93;1.30;;;;;;;;;;5070674;28;20223;-53
2023/06/03 00:13:07;;;;;;;1.97;1.17;;;;;;;;;;5071017;28;20211;-53
2023/06/03 00:15:33;;;;;;;1.73;1.13;;;;;;;;;;5070736;28;20230;-53
2023/06/03 00:17:58;;;;;;;1.50;0.90;;;;;;;;;;5070834;28;20199;-53
2023/06/03 00:20:25;;;;;;;1.27;1.20;;;;;;;;;;5070643;28;20196;-53
2023/06/03 00:22:51;;;;;;;1.03;1.00;;;;;;;;;;5070908;28;20238;-54
2023/06/03 00:25:17;;;;;;;1.63;1.07;;;;;;;;;;5071263;28;20323;-54
2023/06/03 00:27:43;;;;;;;1.00;1.00;;;;;;;;;;5074221;28;20493;-54
2023/06/03 00:30:11;;;;;;;1.20;1.10;;;;;;;;;;5074191;28;20682;-54
2023/06/03 00:32:37;;;;;;;2.40;1.20;;;;;;;;;;5074463;28;20642;-55
2023/06/03 00:35:03;;;;;;;1.53;1.20;;;;;;;;;;5074457;28;20284;-55
2023/06/03 00:37:29;;;;;;;1.47;1.30;;;;;;;;;;5074194;28;20211;-56
2023/06/03 00:39:55;;;;;;;2.97;1.20;;;;;;;;;;5074051;28;20562;-55
2023/06/03 00:42:21;;;;;;;1.50;1.37;;;;;;;;;;5074132;28;20386;-54
2023/06/03 00:44:47;;;;;;;1.23;1.07;;;;;;;;;;5073948;28;20270;-53
2023/06/03 00:47:14;;;;;;;2.33;1.30;;;;;;;;;;5073990;28;20713;-52
2023/06/03 00:49:40;;;;;;;1.53;1.20;;;;;;;;;;5073863;28;20698;-53
2023/06/03 00:52:06;;;;;;;1.63;1.20;;;;;;;;;;5074086;28;20568;-52
2023/06/03 00:54:33;;;;;;;1.10;1.00;;;;;;;;;;5073844;28;20299;-52
2023/06/03 00:56:59;;;;;;;1.30;1.20;;;;;;;;;;5074076;28;20249;-53
2023/06/03 00:59:25;;;;;;;1.40;1.30;;;;;;;;;;5073742;28;20196;-55
2023/06/03 01:01:51;;;;;;;1.67;1.20;;;;;;;;;;5073938;28;20253;-53
2023/06/03 01:04:25;;;;;;;1.57;1.20;;;;;;;;;;5073822;28;20219;-55
2023/06/03 01:06:55;;;;;;;1.20;1.10;;;;;;;;;;5073882;28;20226;-55
2023/06/03 01:09:25;;;;;;;1.50;1.20;;;;;;;;;;5073830;28;20234;-55
2023/06/03 01:11:56;;;;;;;1.93;1.13;;;;;;;;;;5073909;28;20195;-55
2023/06/03 01:14:25;;;;;;;1.57;1.10;;;;;;;;;;5073713;28;20207;-55
2023/06/03 01:16:52;;;;;;;1.80;1.53;;;;;;;;;;5073697;28;20199;-55
2023/06/03 01:19:29;;;;;;;1.93;1.30;;;;;;;;;;5073655;28;20206;-55
2023/06/03 01:22:00;;;;;;;1.10;1.07;;;;;;;;;;5073553;28;20204;-54
2023/06/03 01:24:30;;;;;;;1.20;1.10;;;;;;;;;;5073161;28;20714;-54
2023/06/03 01:26:56;;;;;;;1.30;1.20;;;;;;;;;;5073471;28;20203;-53
2023/06/03 01:29:24;;;;;;;1.33;1.23;;;;;;;;;;5073194;28;20227;-53
2023/06/03 01:31:50;;;;;;;1.40;1.30;;;;;;;;;;5073364;28;20268;-53
2023/06/03 01:34:16;;;;;;;1.30;1.20;;;;;;;;;;5073238;28;20211;-53
2023/06/03 01:36:42;;;;;;;1.30;1.20;;;;;;;;;;5072595;28;20356;-53
2023/06/03 01:39:08;;;;;;;1.30;1.20;;;;;;;;;;5073279;28;20219;-53
2023/06/03 01:41:37;;;;;;;2.57;1.20;;;;;;;;;;5073185;28;20199;-53
2023/06/03 01:44:03;;;;;;;1.53;1.30;;;;;;;;;;5073113;28;20196;-54
2023/06/03 01:46:29;;;;;;;1.63;1.20;;;;;;;;;;5072899;28;20196;-54
2023/06/03 01:48:55;;;;;;;1.70;1.30;;;;;;;;;;5072702;28;20322;-54
2023/06/03 01:51:25;;;;;;;1.53;1.33;;;;;;;;;;5072947;28;20563;-54
2023/06/03 01:53:51;;;;;;;1.27;1.20;;;;;;;;;;5072863;28;20211;-54
2023/06/03 01:56:16;;;;;;;1.20;1.10;;;;;;;;;;5072854;28;20196;-54
2023/06/03 01:58:44;;;;;;;1.77;1.37;;;;;;;;;;5072591;28;20234;-54
2023/06/03 02:01:10;;;;;;;1.60;1.10;;;;;;;;;;5072735;28;20203;-54
2023/06/03 02:03:36;;;;;;;2.83;1.30;;;;;;;;;;5072590;28;20772;-54
2023/06/03 02:06:02;;;;;;;3.03;1.20;;;;;;;;;;5072842;28;20253;-54
2023/06/03 02:08:28;;;;;;;1.43;1.13;;;;;;;;;;5072453;28;20726;-54
2023/06/03 02:10:54;;;;;;;1.30;1.20;;;;;;;;;;5072263;28;20224;-54
2023/06/03 02:13:20;;;;;;;2.23;1.10;;;;;;;;;;5072573;28;20195;-54
2023/06/03 02:15:48;;;;;;;1.50;1.30;;;;;;;;;;5072250;28;20290;-54
2023/06/03 02:18:14;;;;;;;1.93;1.20;;;;;;;;;;5072327;28;20207;-54
2023/06/03 02:20:41;;;;;;;2.03;1.40;;;;;;;;;;5072121;28;20196;-54
2023/06/03 02:23:07;;;;;;;1.40;1.30;;;;;;;;;;5072167;28;20196;-54
2023/06/03 02:25:33;;;;;;;1.70;1.57;;;;;;;;;;5072259;28;20249;-53
2023/06/03 02:27:59;;;;;;;1.40;1.30;;;;;;;;;;5071931;28;20650;-54
2023/06/03 02:30:26;;;;;;;1.30;1.20;;;;;;;;;;5071873;28;20688;-54
2023/06/03 02:32:53;;;;;;;1.10;1.00;;;;;;;;;;5072084;28;20200;-54
2023/06/03 02:35:19;;;;;;;1.30;1.20;;;;;;;;;;5072049;28;20196;-54
2023/06/03 02:37:45;;;;;;;1.40;1.30;;;;;;;;;;5071845;28;20563;-54
2023/06/03 02:40:12;;;;;;;1.37;1.27;;;;;;;;;;5071916;28;20188;-54
2023/06/03 02:42:38;;;;;;;2.30;1.30;;;;;;;;;;5071781;28;20231;-54
2023/06/03 02:45:04;;;;;;;1.63;1.00;;;;;;;;;;5072087;28;20298;-52
2023/06/03 02:47:30;;;;;;;1.47;1.37;;;;;;;;;;5071222;28;20607;-53
2023/06/03 02:49:57;;;;;;;3.30;1.40;;;;;;;;;;5071190;28;20276;-53
2023/06/03 02:52:23;;;;;;;2.00;1.40;;;;;;;;;;5071778;28;20207;-53
2023/06/03 02:54:50;;;;;;;1.53;1.30;;;;;;;;;;5071767;28;20195;-53
2023/06/03 02:57:16;;;;;;;3.77;1.27;;;;;;;;;;5071565;28;20278;-53
2023/06/03 02:59:42;;;;;;;2.53;1.27;;;;;;;;;;5071486;28;20188;-53
2023/06/03 03:02:08;;;;;;;1.57;1.30;;;;;;;;;;5071795;28;20207;-53
2023/06/03 03:04:36;;;;;;;2.70;1.47;;;;;;;;;;5071424;28;20594;-53
2023/06/03 03:07:05;;;;;;;1.60;1.27;;;;;;;;;;5071260;28;20207;-53
2023/06/03 03:09:31;;;;;;;2.03;1.40;;;;;;;;;;5070283;28;20250;-53
2023/06/03 03:11:57;;;;;;;1.40;1.30;;;;;;;;;;5070823;28;20223;-53
2023/06/03 03:14:23;;;;;;;2.23;1.40;;;;;;;;;;5071433;28;20666;-53
2023/06/03 03:16:49;;;;;;;1.20;1.10;;;;;;;;;;5071404;28;20261;-53
2023/06/03 03:19:15;;;;;;;3.80;1.50;;;;;;;;;;5071289;28;20199;-53
2023/06/03 03:21:41;;;;;;;1.70;1.50;;;;;;;;;;5070904;28;20670;-53
2023/06/03 03:24:08;;;;;;;1.50;1.40;;;;;;;;;;5070961;28;20246;-53
2023/06/03 03:26:35;;;;;;;1.73;1.50;;;;;;;;;;5071327;28;20202;-53
2023/06/03 03:29:01;;;;;;;1.40;1.30;;;;;;;;;;5071243;28;20199;-53
2023/06/03 03:31:27;;;;;;;1.77;1.40;;;;;;;;;;5071152;28;20361;-54
2023/06/03 03:33:53;;;;;;;1.40;1.20;;;;;;;;;;5071259;28;20206;-53
2023/06/03 03:36:22;;;;;;;1.30;1.20;;;;;;;;;;5071321;28;20201;-53
2023/06/03 03:38:50;;;;;;;1.60;1.50;;;;;;;;;;5071117;28;20282;-54
2023/06/03 03:41:18;;;;;;;1.90;1.70;;;;;;;;;;5071230;28;20214;-53
2023/06/03 03:43:44;;;;;;;1.77;1.40;;;;;;;;;;5070949;28;20195;-55
2023/06/03 03:46:10;;;;;;;2.17;1.40;;;;;;;;;;5071050;28;20214;-55
2023/06/03 03:48:36;;;;;;;2.07;1.30;;;;;;;;;;5071151;28;20282;-55
2023/06/03 03:51:02;;;;;;;2.57;1.57;;;;;;;;;;5071042;28;20278;-55
2023/06/03 03:53:29;;;;;;;1.90;1.50;;;;;;;;;;5070949;28;20725;-55
2023/06/03 03:55:56;;;;;;;2.40;1.40;;;;;;;;;;5070805;28;20672;-55
2023/06/03 03:58:24;;;;;;;1.80;1.57;;;;;;;;;;5071250;28;20198;-54
2023/06/03 04:00:51;;;;;;;3.20;1.40;;;;;;;;;;5074351;28;20674;-54
2023/06/03 04:03:17;;;;;;;2.87;1.63;;;;;;;;;;5074952;28;20205;-54
2023/06/03 04:05:44;;;;;;;1.47;1.37;;;;;;;;;;5074683;28;20297;-54
2023/06/03 04:08:15;;;;;;;1.93;1.37;;;;;;;;;;5074815;28;20219;-54
2023/06/03 04:10:41;;;;;;;2.50;1.47;;;;;;;;;;5074630;28;20235;-54
2023/06/03 04:13:07;;;;;;;1.70;1.30;;;;;;;;;;5074848;28;20727;-54
2023/06/03 04:15:35;;;;;;;1.43;1.33;;;;;;;;;;5074715;28;20245;-54
2023/06/03 04:18:01;;;;;;;1.97;1.60;;;;;;;;;;5074710;28;20208;-54
2023/06/03 04:20:38;;;;;;;1.47;1.37;;;;;;;;;;5074520;28;20191;-54
2023/06/03 04:23:05;;;;;;;1.60;1.50;;;;;;;;;;5074603;28;20195;-54
2023/06/03 04:25:33;;;;;;;1.63;1.30;;;;;;;;;;5074416;28;20246;-54
2023/06/03 04:27:59;;;;;;;5.00;1.57;;;;;;;;;;5074359;28;20282;-55
2023/06/03 04:30:25;;;;;;;2.53;1.47;;;;;;;;;;5074248;28;20310;-54
2023/06/03 04:32:52;;;;;;;3.83;1.47;;;;;;;;;;5074372;28;20572;-54
2023/06/03 04:35:18;;;;;;;2.47;1.30;;;;;;;;;;5074580;28;20214;-54
2023/06/03 04:37:44;;;;;;;1.30;1.20;;;;;;;;;;5074303;28;20570;-54
2023/06/03 04:40:11;;;;;;;2.37;1.30;;;;;;;;;;5074152;28;20192;-54
2023/06/03 04:42:37;;;;;;;1.70;1.60;;;;;;;;;;5074136;28;20229;-55
2023/06/03 04:45:05;;;;;;;1.50;1.40;;;;;;;;;;5074158;28;20207;-55
2023/06/03 04:47:31;;;;;;;1.63;1.53;;;;;;;;;;5074016;28;20562;-55
2023/06/03 04:50:00;;;;;;;1.60;1.40;;;;;;;;;;5073864;28;20235;-54
2023/06/03 04:52:27;;;;;;;1.57;1.47;;;;;;;;;;5073999;28;20287;-54
2023/06/03 04:54:53;;;;;;;1.93;1.50;;;;;;;;;;5073787;28;20200;-54
2023/06/03 04:57:19;;;;;;;1.60;1.50;;;;;;;;;;5074186;28;20561;-54
2023/06/03 04:59:45;;;;;;;2.43;1.40;;;;;;;;;;5073699;28;20685;-54
2023/06/03 05:02:13;;;;;;;1.90;1.23;;;;;;;;;;5073820;28;20260;-55
2023/06/03 05:04:40;;;;;;;2.30;1.30;;;;;;;;;;5073553;28;20219;-55
2023/06/03 05:07:10;;;;;;;1.50;1.40;;;;;;;;;;5073968;28;20200;-54
2023/06/03 05:09:44;;;;;;;1.50;1.30;;;;;;;;;;5073808;28;20215;-54
2023/06/03 05:12:10;;;;;;;1.70;1.30;;;;;;;;;;5072731;28;20294;-55
2023/06/03 05:14:36;;;;;;;1.37;1.27;;;;;;;;;;5073679;28;20200;-55
2023/06/03 05:17:02;;;;;;;1.63;1.40;;;;;;;;;;5073609;28;20196;-54
2023/06/03 05:19:28;;;;;;;1.50;1.40;;;;;;;;;;5073458;28;20214;-54
2023/06/03 05:21:56;;;;;;;1.70;1.50;;;;;;;;;;5073320;28;20194;-55
2023/06/03 05:24:23;;;;;;;1.50;1.20;;;;;;;;;;5073438;28;20281;-54
2023/06/03 05:26:49;;;;;;;1.83;1.60;;;;;;;;;;5073566;28;20556;-54
2023/06/03 05:29:15;;;;;;;1.50;1.40;;;;;;;;;;5073320;28;20195;-54
2023/06/03 05:31:41;;;;;;;1.40;1.30;;;;;;;;;;5073119;28;20265;-54
2023/06/03 05:34:07;;;;;;;2.57;1.40;;;;;;;;;;5073687;28;20207;-55
2023/06/03 05:36:33;;;;;;;1.40;1.30;;;;;;;;;;5073289;28;20197;-55
2023/06/03 05:38:59;;;;;;;2.20;1.40;;;;;;;;;;5073003;28;20246;-54
2023/06/03 05:41:26;;;;;;;2.43;1.60;;;;;;;;;;5072972;28;20570;-54
2023/06/03 05:43:52;;;;;;;4.53;1.40;;;;;;;;;;5072006;28;20204;-53
2023/06/03 05:46:18;;;;;;;2.10;1.50;;;;;;;;;;5072971;28;20736;-53
2023/06/03 05:48:44;;;;;;;2.77;1.40;;;;;;;;;;5072816;28;20282;-53
2023/06/03 05:51:11;;;;;;;2.03;1.23;;;;;;;;;;5072719;28;20654;-53
2023/06/03 05:53:43;;;;;;;2.73;1.40;;;;;;;;;;5072894;28;20200;-53
2023/06/03 05:56:09;;;;;;;1.53;1.33;;;;;;;;;;5072780;28;20222;-53
2023/06/03 05:58:38;;;;;;;1.40;1.30;;;;;;;;;;5072822;28;20658;-54
2023/06/03 06:01:04;;;;;;;4.53;1.40;;;;;;;;;;5073074;28;20207;-54
2023/06/03 06:03:30;;;;;;;1.93;1.50;;;;;;;;;;5072645;28;20202;-54
2023/06/03 06:05:56;;;;;;;1.40;1.30;;;;;;;;;;5072439;28;20242;-54
2023/06/03 06:08:22;;;;;;;3.53;1.53;;;;;;;;;;5072728;28;20208;-54
2023/06/03 06:10:48;;;;;;;3.23;1.60;;;;;;;;;;5072274;28;20223;-54
2023/06/03 06:13:14;;;;;;;1.30;1.20;;;;;;;;;;5072300;28;20195;-54
2023/06/03 06:15:55;;;;;;;1.90;1.20;;;;;;;;;;5072222;28;20290;-54
2023/06/03 06:18:22;;;;;;;1.40;1.30;;;;;;;;;;5072460;28;20661;-55
2023/06/03 06:20:49;;;;;;;1.20;1.10;;;;;;;;;;5072209;28;20196;-53
2023/06/03 06:23:15;;;;;;;1.80;1.43;;;;;;;;;;5071782;28;20636;-54
2023/06/03 06:25:41;;;;;;;1.30;1.20;;;;;;;;;;5072147;28;20223;-53
2023/06/03 06:28:07;;;;;;;2.10;1.20;;;;;;;;;;5072144;28;20619;-53
2023/06/03 06:30:33;;;;;;;1.03;0.93;;;;;;;;;;5071985;28;20229;-53
2023/06/03 06:33:01;;;;;;;1.57;1.10;;;;;;;;;;5072146;28;20499;-54
2023/06/03 06:35:28;;;;;;;1.40;1.10;;;;;;;;;;5071889;28;20218;-53
2023/06/03 06:37:56;;;;;;;1.93;1.37;;;;;;;;;;5071562;28;20203;-53
2023/06/03 06:40:27;;;;;;;2.70;1.10;;;;;;;;;;5072072;28;20242;-53
2023/06/03 06:42:53;;;;;;;1.40;1.30;;;;;;;;;;5071972;28;20633;-54
2023/06/03 06:45:22;;;;;;;1.87;1.20;;;;;;;;;;5071905;28;20299;-55
2023/06/03 06:47:48;;;;;;;1.03;1.00;;;;;;;;;;5071767;28;20207;-55
2023/06/03 06:50:27;;;;;;;2.37;1.50;;;;;;;;;;5071654;28;20763;-55
2023/06/03 06:52:53;;;;;;;1.50;1.20;;;;;;;;;;5071710;28;20192;-55
2023/06/03 06:55:32;;;;;;;1.30;1.20;;;;;;;;;;5071878;28;20286;-55
2023/06/03 06:57:58;;;;;;;1.77;1.30;;;;;;;;;;5071504;28;20200;-54
2023/06/03 07:00:24;;;;;;;1.03;1.00;;;;;;;;;;5071569;28;20654;-54
2023/06/03 07:02:50;;;;;;;1.50;1.20;;;;;;;;;;5071637;28;20223;-55
2023/06/03 07:05:16;;;;;;;1.20;1.10;;;;;;;;;;5071538;28;20240;-54
2023/06/03 07:07:43;;;;;;;1.20;1.07;;;;;;;;;;5071385;28;20663;-55
2023/06/03 07:10:10;;;;;;;2.00;1.20;;;;;;;;;;5071277;28;20689;-54
2023/06/03 07:12:37;;;;;;;2.20;1.20;;;;;;;;;;5071475;28;20607;-55
2023/06/03 07:15:03;;;;;;;1.57;1.10;;;;;;;;;;5071667;28;20188;-54
2023/06/03 07:17:31;;;;;;;2.33;1.23;;;;;;;;;;5071462;28;20199;-55
2023/06/03 07:19:57;;;;;;;1.63;1.37;;;;;;;;;;5071203;28;20201;-55
2023/06/03 07:22:23;;;;;;;1.40;1.30;;;;;;;;;;5071312;28;20295;-55
2023/06/03 07:24:50;;;;;;;0.97;0.93;;;;;;;;;;5071174;28;20792;-55
2023/06/03 07:27:22;;;;;;;1.43;1.17;;;;;;;;;;5071186;28;20201;-54
2023/06/03 07:29:48;;;;;;;1.90;1.10;;;;;;;;;;5070993;28;20225;-55
2023/06/03 07:32:15;;;;;;;5.63;1.60;;;;;;;;;;5071147;28;20234;-54
2023/06/03 07:34:41;;;;;;;2.17;1.27;;;;;;;;;;5070740;28;20665;-55
2023/06/03 07:37:12;;;;;;;1.57;1.30;;;;;;;;;;5069946;28;20195;-55
2023/06/03 07:39:39;;;;;;;2.50;1.27;;;;;;;;;;5071325;28;20200;-54
2023/06/03 07:42:11;;;;;;;1.73;1.17;;;;;;;;;;5071015;28;20273;-54
2023/06/03 07:44:41;;;;;;;1.47;1.10;;;;;;;;;;5071105;28;20228;-55
2023/06/03 07:47:08;;;;;;;2.60;1.20;;;;;;;;;;5071266;28;20196;-55
2023/06/03 07:49:34;;;;;;;2.80;1.30;;;;;;;;;;5070801;28;20647;-54
2023/06/03 07:52:00;;;;;;;1.63;1.20;;;;;;;;;;5070655;28;20196;-55
2023/06/03 07:54:27;;;;;;;1.40;1.00;;;;;;;;;;5070943;28;20231;-54
2023/06/03 07:56:55;;;;;;;1.50;1.13;;;;;;;;;;5070835;28;20214;-54
2023/06/03 07:59:23;;;;;;;2.07;1.00;;;;;;;;;;5071157;28;20222;-54
2023/06/03 08:01:51;;;;;;;1.87;1.10;;;;;;;;;;5070966;28;20202;-54
2023/06/03 08:04:35;;;;;;;1.37;1.10;;;;;;;;;;5070898;28;20221;-54
2023/06/03 08:07:02;;;;;;;1.50;1.20;;;;;;;;;;5070645;28;20650;-54
2023/06/03 08:09:28;;;;;;;2.97;1.00;;;;;;;;;;5070994;28;20452;-55
2023/06/03 08:11:55;;;;;;;1.93;1.33;;;;;;;;;;5070594;28;20206;-54
2023/06/03 08:14:22;;;;;;;1.50;1.07;;;;;;;;;;5070978;28;20199;-54
2023/06/03 08:16:48;;;;;;;1.17;1.00;;;;;;;;;;5070634;28;20217;-54
2023/06/03 08:19:17;;;;;;;2.17;1.20;;;;;;;;;;5070754;28;20199;-55
2023/06/03 08:21:44;;;;;;;2.33;1.50;;;;;;;;;;5070532;28;20492;-54
2023/06/03 08:24:12;;;;;;;4.57;1.10;;;;;;;;;;5070508;28;20235;-55
2023/06/03 08:26:38;;;;;;;1.70;1.07;;;;;;;;;;5070481;28;20203;-55
2023/06/03 08:29:04;;;;;;;1.17;0.97;;;;;;;;;;5070806;28;20249;-54
2023/06/03 08:31:32;;;;;;;1.90;1.20;;;;;;;;;;5070480;28;20231;-55
2023/06/03 08:33:58;;;;;;;1.73;1.00;;;;;;;;;;5070404;28;20207;-55
2023/06/03 08:36:24;;;;;;;1.83;1.10;;;;;;;;;;5070336;28;20223;-55
2023/06/03 08:38:50;;;;;;;1.53;0.83;;;;;;;;;;5070584;28;20282;-54
2023/06/03 08:41:16;;;;;;;1.27;1.17;;;;;;;;;;5070475;28;20580;-55
2023/06/03 08:43:44;;;;;;;1.00;0.90;;;;;;;;;;5070284;28;20685;-54
2023/06/03 08:46:17;;;;;;;2.77;0.97;;;;;;;;;;5070770;28;20245;-55
2023/06/03 08:48:47;;;;;;;1.57;0.90;;;;;;;;;;5073746;28;20207;-54
2023/06/03 08:51:15;;;;;;;1.03;0.90;;;;;;;;;;5074059;28;20233;-54
2023/06/03 08:53:45;;;;;;;1.90;0.83;;;;;;;;;;5073742;28;20556;-54
2023/06/03 08:56:12;;;;;;;1.73;1.10;;;;;;;;;;5073851;28;20242;-55
2023/06/03 08:58:45;;;;;;;1.20;0.93;;;;;;;;;;5073953;28;20595;-55
2023/06/03 09:01:11;;;;;;;1.13;1.00;;;;;;;;;;5073842;28;20271;-55
2023/06/03 09:03:38;;;;;;;1.00;0.90;;;;;;;;;;5073820;28;20196;-55
2023/06/03 09:06:06;;;;;;;1.50;0.77;;;;;;;;;;5073951;28;20203;-55
2023/06/03 09:08:32;;;;;;;1.50;1.00;;;;;;;;;;5073699;28;20751;-54
2023/06/03 09:10:59;;;;;;;1.10;1.00;;;;;;;;;;5073502;28;20318;-55
2023/06/03 09:13:28;;;;;;;0.70;0.70;;;;;;;;;;5073345;28;20306;-55
2023/06/03 09:15:55;;;;;;;1.77;1.00;;;;;;;;;;5073396;28;20717;-55
2023/06/03 09:18:21;;;;;;;1.47;0.83;;;;;;;;;;5073566;28;20294;-55
2023/06/03 09:20:47;;;;;;;1.87;1.30;;;;;;;;;;5073370;28;20192;-55
2023/06/03 09:23:15;;;;;;;1.10;0.90;;;;;;;;;;5073224;28;20202;-55
2023/06/03 09:25:43;;;;;;;1.40;1.03;;;;;;;;;;5073234;28;20279;-55
2023/06/03 09:28:09;;;;;;;1.40;0.90;;;;;;;;;;5073358;28;20201;-55
2023/06/03 09:30:35;;;;;;;2.27;0.93;;;;;;;;;;5073427;28;20229;-55
2023/06/03 09:33:01;;;;;;;2.10;0.77;;;;;;;;;;5073104;28;20615;-55
2023/06/03 09:35:27;;;;;;;1.30;0.90;;;;;;;;;;5073158;28;20576;-55
2023/06/03 09:38:00;;;;;;;2.80;0.70;;;;;;;;;;5073048;28;20226;-55
2023/06/03 09:40:29;;;;;;;1.37;0.87;;;;;;;;;;5073073;28;20255;-55
2023/06/03 09:42:55;;;;;;;1.63;1.00;;;;;;;;;;5072959;28;20679;-55
2023/06/03 09:45:27;;;;;;;2.87;1.10;;;;;;;;;;5073121;28;20208;-55
2023/06/03 09:47:53;;;;;;;0.90;0.90;;;;;;;;;;5072812;28;20201;-55
2023/06/03 09:50:20;;;;;;;0.90;0.90;;;;;;;;;;5072900;28;20823;-55
2023/06/03 09:52:46;;;;;;;1.13;0.90;;;;;;;;;;5072770;28;20227;-55
2023/06/03 09:55:13;;;;;;;0.70;0.70;;;;;;;;;;5072841;28;20254;-55
2023/06/03 09:57:41;;;;;;;1.20;1.00;;;;;;;;;;5072192;28;20234;-55
2023/06/03 10:00:09;;;;;;;1.00;0.93;;;;;;;;;;5072960;28;20218;-55
2023/06/03 10:02:36;;;;;;;1.00;0.90;;;;;;;;;;5072887;28;20201;-55
2023/06/03 10:05:03;;;;;;;1.90;1.10;;;;;;;;;;5072707;28;20231;-55
2023/06/03 10:07:29;;;;;;;2.43;1.13;;;;;;;;;;5072431;28;20242;-55
2023/06/03 10:10:03;;;;;;;1.47;0.93;;;;;;;;;;5072347;28;20252;-55
2023/06/03 10:12:30;;;;;;;1.80;0.97;;;;;;;;;;5072513;28;20331;-55
2023/06/03 10:15:00;;;;;;;1.97;1.10;;;;;;;;;;5072550;28;20197;-55
2023/06/03 10:17:27;;;;;;;1.43;1.20;;;;;;;;;;5072584;28;20215;-55
2023/06/03 10:19:53;;;;;;;1.00;0.90;;;;;;;;;;5072269;28;20276;-55
2023/06/03 10:22:19;;;;;;;0.83;0.80;;;;;;;;;;5072431;28;20205;-54
2023/06/03 10:24:46;;;;;;;2.33;1.10;;;;;;;;;;5071886;28;20241;-55
2023/06/03 10:27:13;;;;;;;1.10;1.00;;;;;;;;;;5072139;28;20574;-55
2023/06/03 10:29:39;;;;;;;2.53;0.93;;;;;;;;;;5072219;28;20217;-55
2023/06/03 10:32:08;;;;;;;2.27;1.20;;;;;;;;;;5072216;28;20651;-55
2023/06/03 10:34:36;;;;;;;1.40;1.00;;;;;;;;;;5072136;28;20285;-55
2023/06/03 10:37:04;;;;;;;1.37;1.10;;;;;;;;;;5071981;28;20205;-55
2023/06/03 10:39:30;;;;;;;1.90;1.13;;;;;;;;;;5071944;28;20203;-55
2023/06/03 10:41:57;;;;;;;1.27;0.97;;;;;;;;;;5071678;28;20194;-55
2023/06/03 10:44:23;;;;;;;1.00;0.90;;;;;;;;;;5071902;28;20240;-55
2023/06/03 10:46:55;;;;;;;1.00;0.90;;;;;;;;;;5071896;28;20200;-55
2023/06/03 10:49:23;;;;;;;1.77;0.97;;;;;;;;;;5071857;28;20563;-55
2023/06/03 10:51:55;;;;;;;1.20;1.10;;;;;;;;;;5071827;28;20251;-55
2023/06/03 10:54:30;;;;;;;1.87;1.20;;;;;;;;;;5071910;28;20208;-55
2023/06/03 10:56:59;;;;;;;1.03;0.90;;;;;;;;;;5071421;28;20208;-55
2023/06/03 10:59:27;;;;;;;1.57;0.90;;;;;;;;;;5071518;28;20278;-55
2023/06/03 11:02:01;;;;;;;1.27;0.90;;;;;;;;;;5071686;28;20727;-55
2023/06/03 11:04:29;;;;;;;1.63;1.13;;;;;;;;;;5071476;28;20454;-55
2023/06/03 11:06:55;;;;;;;1.63;1.20;;;;;;;;;;5071338;28;20204;-54
2023/06/03 11:09:31;;;;;;;2.03;1.40;;;;;;;;;;5069700;28;20399;-54
2023/06/03 11:12:06;;;;;;;1.70;1.20;;;;;;;;;;5071116;28;20699;-55
2023/06/03 11:14:51;;;;;;;1.10;0.97;;;;;;;;;;5071470;28;20263;-55
2023/06/03 11:17:18;;;;;;;1.40;1.03;;;;;;;;;;5071418;28;20204;-55
2023/06/03 11:19:51;;;;;;;1.00;0.90;;;;;;;;;;5071199;28;20197;-55
2023/06/03 11:22:37;;;;;;;1.50;1.10;;;;;;;;;;5071326;28;20246;-55
2023/06/03 11:25:03;;;;;;;1.37;0.77;;;;;;;;;;5071134;28;20303;-55
2023/06/03 11:27:30;;;;;;;2.23;1.00;;;;;;;;;;5071138;28;20621;-55
2023/06/03 11:29:58;;;;;;;1.20;1.10;;;;;;;;;;5070990;28;20216;-54
2023/06/03 11:32:25;;;;;;;3.00;1.00;;;;;;;;;;5071147;28;20293;-54
2023/06/03 11:35:12;;;;;;;1.53;0.93;;;;;;;;;;5071157;28;20213;-54
2023/06/03 11:37:56;;;;;;;4.17;1.10;;;;;;;;;;5070735;28;20695;-55
2023/06/03 11:40:22;;;;;;;1.87;1.10;;;;;;;;;;5071095;28;20219;-54
2023/06/03 11:43:07;;;;;;;2.17;1.00;;;;;;;;;;5071105;28;20242;-55
2023/06/03 11:45:33;;;;;;;1.40;1.10;;;;;;;;;;5071152;28;20199;-54
2023/06/03 11:48:01;;;;;;;1.10;1.00;;;;;;;;;;5070909;28;20198;-54
2023/06/03 11:50:29;;;;;;;1.10;0.90;;;;;;;;;;5070959;28;20426;-55
2023/06/03 11:52:55;;;;;;;0.70;0.63;;;;;;;;;;5070833;28;20763;-56
2023/06/03 11:55:24;;;;;;;0.80;0.80;;;;;;;;;;5071048;28;20293;-54
2023/06/03 11:57:50;;;;;;;1.23;0.93;;;;;;;;;;5070978;28;20679;-55
2023/06/03 12:00:17;;;;;;;2.13;1.17;;;;;;;;;;5070846;28;20198;-54
2023/06/03 12:02:47;;;;;;;1.27;0.97;;;;;;;;;;5070514;28;20198;-54
2023/06/03 12:05:13;;;;;;;0.93;0.83;;;;;;;;;;5070795;28;20458;-55
2023/06/03 12:07:43;;;;;;;3.30;1.20;;;;;;;;;;5070762;28;20203;-54
2023/06/03 12:10:11;;;;;;;0.90;0.90;;;;;;;;;;5070669;28;20705;-55
2023/06/03 12:12:48;;;;;;;1.77;1.27;;;;;;;;;;5070588;28;20215;-55
2023/06/03 12:15:14;;;;;;;1.13;1.03;;;;;;;;;;5070565;28;20195;-54
2023/06/03 12:17:40;;;;;;;1.17;0.80;;;;;;;;;;5070674;28;20205;-55
2023/06/03 12:20:07;;;;;;;0.83;0.80;;;;;;;;;;5071452;28;20671;-55
2023/06/03 12:22:33;;;;;;;1.13;1.00;;;;;;;;;;5073490;28;20399;-54
2023/06/03 12:25:00;;;;;;;2.37;1.00;;;;;;;;;;5072964;28;20427;-54
2023/06/03 12:27:26;;;;;;;1.52;1.00;;;;;;;;;;5073482;28;20422;-54
2023/06/03 12:29:54;;;;;;;2.20;1.15;;;;;;;;;;5073118;28;20877;-55
2023/06/03 12:32:20;;;;;;;1.30;0.90;;;;;;;;;;5073435;28;20419;-55
2023/06/03 12:34:47;;;;;;;1.77;1.00;;;;;;;;;;5073099;28;20430;-55
2023/06/03 12:37:24;;;;;;;1.10;1.00;;;;;;;;;;5073072;28;20913;-55
2023/06/03 12:39:51;;;;;;;1.10;0.98;;;;;;;;;;5073084;28;20403;-55
2023/06/03 12:42:19;;;;;;;1.10;1.00;;;;;;;;;;5074330;28;20201;-55
2023/06/03 12:44:46;;;;;;;0.80;0.80;;;;;;;;;;5072931;28;20426;-54
2023/06/03 12:47:13;;;;;;;1.97;1.17;;;;;;;;;;5072871;28;20392;-54
2023/06/03 12:49:39;;;;;;;5.03;0.90;;;;;;;;;;5074227;28;20192;-55
2023/06/03 12:52:12;;;;;;;4.60;1.10;;;;;;;;;;5074048;28;20226;-54
2023/06/03 12:54:38;;;;;;;1.03;0.93;;;;;;;;;;5074139;28;20243;-55
2023/06/03 12:57:04;;;;;;;1.00;0.80;;;;;;;;;;5074215;28;20248;-54
2023/06/03 12:59:31;;;;;;;1.27;1.00;;;;;;;;;;5073608;28;20201;-55
2023/06/03 13:01:58;;;;;;;2.03;1.23;;;;;;;;;;5073667;28;20201;-55
2023/06/03 13:04:24;;;;;;;1.17;0.90;;;;;;;;;;5073736;28;20688;-55
2023/06/03 13:06:50;;;;;;;1.10;1.00;;;;;;;;;;5073887;28;20208;-54
2023/06/03 13:09:16;;;;;;;3.83;1.00;;;;;;;;;;5073619;28;20664;-55
2023/06/03 13:11:42;;;;;;;1.30;1.10;;;;;;;;;;5073506;28;20227;-55
2023/06/03 13:14:09;;;;;;;1.47;1.00;;;;;;;;;;5073739;28;20251;-55
2023/06/03 13:16:36;;;;;;;2.87;1.00;;;;;;;;;;5073762;28;20229;-54
2023/06/03 13:19:02;;;;;;;1.33;0.90;;;;;;;;;;5073502;28;20596;-55
2023/06/03 13:21:28;;;;;;;1.00;0.90;;;;;;;;;;5073390;28;20658;-55
2023/06/03 13:23:54;;;;;;;0.93;0.83;;;;;;;;;;5073148;28;20678;-54
2023/06/03 13:26:21;;;;;;;1.50;0.87;;;;;;;;;;5073598;28;20230;-55
2023/06/03 13:28:47;;;;;;;1.70;1.00;;;;;;;;;;5073296;28;20199;-55
2023/06/03 13:31:13;;;;;;;1.60;1.10;;;;;;;;;;5073027;28;20229;-55
2023/06/03 13:33:40;;;;;;;1.00;0.97;;;;;;;;;;5072298;28;20574;-54
2023/06/03 13:36:07;;;;;;;1.10;1.00;;;;;;;;;;5073346;28;20220;-54
2023/06/03 13:38:32;;;;;;;1.00;0.90;;;;;;;;;;5073301;28;20274;-55
2023/06/03 13:40:58;;;;;;;1.50;0.80;;;;;;;;;;5072892;28;20281;-54
2023/06/03 13:43:24;;;;;;;1.52;1.02;;;;;;;;;;5071900;28;20411;-54
2023/06/03 13:45:50;;;;;;;2.07;1.10;;;;;;;;;;5072888;28;20212;-55
2023/06/03 13:48:16;;;;;;;1.20;1.10;;;;;;;;;;5072986;28;20218;-55
2023/06/03 13:50:44;;;;;;;2.10;1.10;;;;;;;;;;5072764;28;20719;-55
2023/06/03 13:53:10;;;;;;;1.60;1.30;;;;;;;;;;5072626;28;20211;-55
2023/06/03 13:55:36;;;;;;;3.97;1.13;;;;;;;;;;5072955;28;20251;-54
2023/06/03 13:58:02;;;;;;;1.60;1.30;;;;;;;;;;5072753;28;20205;-55
2023/06/03 14:00:28;;;;;;;1.63;1.17;;;;;;;;;;5072646;28;20277;-54
2023/06/03 14:02:54;;;;;;;2.80;1.20;;;;;;;;;;5072609;28;20228;-54
2023/06/03 14:05:20;;;;;;;1.97;0.93;;;;;;;;;;5072704;28;20218;-54
2023/06/03 14:07:47;;;;;;;0.90;0.90;;;;;;;;;;5072561;28;20246;-55
2023/06/03 14:10:14;;;;;;;1.23;1.07;;;;;;;;;;5072226;28;20239;-54
2023/06/03 14:12:40;;;;;;;0.90;0.90;;;;;;;;;;5072268;28;20212;-54
2023/06/03 14:15:06;;;;;;;2.23;1.00;;;;;;;;;;5072400;28;20197;-54
2023/06/03 14:17:32;;;;;;;0.87;0.87;;;;;;;;;;5072133;28;20585;-54
2023/06/03 14:19:58;;;;;;;1.80;1.07;;;;;;;;;;5072297;28;20282;-53
2023/06/03 14:22:24;;;;;;;0.73;0.73;;;;;;;;;;5072295;28;20197;-54
2023/06/03 14:24:52;;;;;;;2.50;1.17;;;;;;;;;;5072092;28;20328;-54
2023/06/03 14:27:18;;;;;;;1.30;1.17;;;;;;;;;;5072369;28;20198;-54
2023/06/03 14:29:44;;;;;;;1.27;1.00;;;;;;;;;;5072149;28;20203;-53
2023/06/03 14:32:10;;;;;;;2.73;1.10;;;;;;;;;;5071905;28;20640;-53
2023/06/03 14:34:36;;;;;;;1.23;1.13;;;;;;;;;;5072171;28;20196;-53
2023/06/03 14:37:02;;;;;;;0.87;0.87;;;;;;;;;;5071960;28;20563;-53
2023/06/03 14:39:28;;;;;;;1.30;0.90;;;;;;;;;;5071835;28;20371;-53
2023/06/03 14:41:56;;;;;;;1.67;1.00;;;;;;;;;;5072131;28;20284;-53
2023/06/03 14:44:22;;;;;;;1.97;0.97;;;;;;;;;;5071040;28;20206;-53